Time;durP1;ratioP1;P1;durP2;ratioP2;P2;SDS_P1;SDS_P2;PMS_P1;PMS_P2;Temp;Humidity;BMP_temperature;BMP_pressure;BME280_temperature;BME280_humidity;BME280_pressure;Samples;Min_cycle;Max_cycle;Signal;HPM_P1;HPM_P2
2023/09/28 00:03:12;;;;;;;8.38;7.18;;;;;;;16.81;100.00;101261.34;10478018;28;20044;-77
2023/09/28 00:08:13;;;;;;;9.63;7.22;;;;;;;16.83;100.00;101242.44;10482015;28;20040;-77
2023/09/28 00:13:13;;;;;;;9.27;7.13;;;;;;;16.77;100.00;101227.69;10469630;28;20044;-79
2023/09/28 00:18:14;;;;;;;11.05;7.03;;;;;;;16.69;100.00;101226.34;10462297;28;20291;-78
2023/09/28 00:23:14;;;;;;;10.10;7.47;;;;;;;16.68;100.00;101229.38;10481497;28;20036;-78
2023/09/28 00:28:15;;;;;;;9.50;7.03;;;;;;;16.21;100.00;101153.78;10480068;28;20040;-78
2023/09/28 00:33:15;;;;;;;8.85;7.40;;;;;;;16.60;100.00;101216.09;10476960;28;20033;-78
2023/09/28 00:38:16;;;;;;;8.60;7.55;;;;;;;16.60;100.00;101200.28;10465514;28;20050;-78
2023/09/28 00:43:24;;;;;;;10.90;7.65;;;;;;;16.62;100.00;101213.84;10467672;28;20044;-78
2023/09/28 00:48:25;;;;;;;10.30;8.85;;;;;;;16.59;100.00;101215.28;10482504;28;20052;-78
2023/09/28 00:53:25;;;;;;;13.98;8.73;;;;;;;16.59;100.00;101220.84;10484048;28;20040;-78
2023/09/28 00:58:26;;;;;;;11.93;7.68;;;;;;;16.57;100.00;101217.50;10457083;28;20071;-78
2023/09/28 01:03:27;;;;;;;13.05;8.73;;;;;;;16.53;100.00;101214.47;10478530;28;20040;-79
2023/09/28 01:08:27;;;;;;;10.77;7.43;;;;;;;16.54;100.00;101209.75;10471832;28;20053;-77
2023/09/28 01:13:31;;;;;;;11.05;7.63;;;;;;;16.57;100.00;101214.72;10478594;28;20040;-78
2023/09/28 01:18:32;;;;;;;9.40;7.15;;;;;;;16.60;100.00;101205.84;10474569;28;20414;-78
2023/09/28 01:23:32;;;;;;;9.70;7.10;;;;;;;16.66;100.00;101206.59;10471761;28;20070;-78
2023/09/28 01:28:34;;;;;;;9.55;8.00;;;;;;;16.65;100.00;101213.31;10474952;28;20454;-78
2023/09/28 01:33:34;;;;;;;11.65;7.75;;;;;;;16.65;100.00;101196.63;10476162;28;20041;-76
2023/09/28 01:38:40;;;;;;;13.48;8.52;;;;;;;16.72;100.00;101209.09;10477199;28;20040;-75
2023/09/28 01:43:41;;;;;;;9.70;7.32;;;;;;;16.76;100.00;101195.44;10447789;28;20074;-78
2023/09/28 01:48:41;;;;;;;11.68;8.20;;;;;;;16.71;100.00;101199.06;10459500;28;20041;-77
2023/09/28 01:53:42;;;;;;;9.25;7.90;;;;;;;16.67;100.00;101199.94;10473916;28;20040;-78
2023/09/28 01:58:42;;;;;;;9.23;7.50;;;;;;;16.59;100.00;101204.16;10479475;28;20037;-77
2023/09/28 02:03:43;;;;;;;8.77;6.30;;;;;;;16.59;100.00;101198.59;10429617;28;20496;-75
2023/09/28 02:08:43;;;;;;;10.68;6.80;;;;;;;16.64;100.00;101206.91;10479961;28;20041;-77
2023/09/28 02:13:44;;;;;;;10.38;6.45;;;;;;;16.70;100.00;101194.66;10473712;28;20051;-76
2023/09/28 02:18:46;;;;;;;10.23;5.90;;;;;;;16.75;100.00;101197.38;10487345;28;20037;-76
2023/09/28 02:23:46;;;;;;;8.18;6.07;;;;;;;16.80;100.00;101204.03;10481215;28;20040;-77
2023/09/28 02:28:48;;;;;;;7.45;5.65;;;;;;;16.85;100.00;101195.69;10487405;28;20049;-74
2023/09/28 02:33:49;;;;;;;8.57;6.72;;;;;;;16.73;100.00;101205.19;10479115;28;20435;-77
2023/09/28 02:38:50;;;;;;;9.32;5.70;;;;;;;16.63;100.00;101208.03;10464382;28;20041;-71
2023/09/28 02:43:51;;;;;;;9.23;5.45;;;;;;;16.49;100.00;101204.22;10480161;28;20338;-77
2023/09/28 02:48:52;;;;;;;9.13;6.40;;;;;;;16.41;100.00;101204.81;10482682;28;20047;-77
2023/09/28 02:53:52;;;;;;;11.27;6.13;;;;;;;16.32;100.00;101208.19;10483570;28;20052;-75
2023/09/28 02:58:53;;;;;;;9.00;6.03;;;;;;;16.22;100.00;101219.34;10482316;28;20413;-77
2023/09/28 03:03:53;;;;;;;9.13;6.45;;;;;;;16.17;100.00;101218.53;10477469;28;20611;-76
2023/09/28 03:08:54;;;;;;;7.28;6.15;;;;;;;16.13;100.00;101207.16;10484924;28;20121;-77
2023/09/28 03:13:54;;;;;;;9.98;6.85;;;;;;;16.08;100.00;101219.13;10480163;28;20033;-77
2023/09/28 03:18:57;;;;;;;10.57;7.25;;;;;;;15.98;100.00;101226.63;10467914;28;20040;-74
2023/09/28 03:23:58;;;;;;;12.18;7.60;;;;;;;15.87;100.00;101232.22;10479099;28;20040;-77
2023/09/28 03:28:59;;;;;;;17.17;8.32;;;;;;;15.77;100.00;101254.44;10484258;28;20051;-75
2023/09/28 03:33:59;;;;;;;10.15;7.78;;;;;;;15.76;100.00;101261.13;10410527;28;20480;-77
2023/09/28 03:39:00;;;;;;;11.57;6.60;;;;;;;15.63;100.00;101253.34;10477151;28;20045;-77
2023/09/28 03:44:00;;;;;;;9.55;7.13;;;;;;;15.61;100.00;101261.94;10482347;28;20029;-76
2023/09/28 03:49:01;;;;;;;11.85;7.20;;;;;;;15.54;100.00;101276.13;10477876;28;20056;-66
2023/09/28 03:54:01;;;;;;;11.65;6.38;;;;;;;15.50;100.00;101277.78;10472569;28;20041;-77
2023/09/28 03:59:02;;;;;;;8.02;6.38;;;;;;;15.46;100.00;101271.13;10480495;28;20040;-76
2023/09/28 04:04:02;;;;;;;10.23;7.50;;;;;;;15.46;100.00;101273.88;10476371;28;20036;-77
2023/09/28 04:09:06;;;;;;;10.10;7.60;;;;;;;15.47;100.00;101274.72;10479458;28;20108;-77
2023/09/28 04:14:08;;;;;;;9.10;7.78;;;;;;;15.49;100.00;101278.03;10479950;28;20044;-75
2023/09/28 04:19:08;;;;;;;11.68;6.80;;;;;;;15.47;100.00;101271.94;10481753;28;20104;-76
2023/09/28 04:24:09;;;;;;;8.45;6.30;;;;;;;15.44;100.00;101273.34;10478343;28;20037;-76
2023/09/28 04:29:09;;;;;;;8.80;6.60;;;;;;;15.29;100.00;101267.75;10480367;28;20047;-75
2023/09/28 04:34:13;;;;;;;14.73;7.45;;;;;;;15.22;100.00;101275.53;10444204;28;20044;-76
2023/09/28 04:39:13;;;;;;;14.88;7.53;;;;;;;15.14;100.00;101279.69;10478685;28;20056;-78
2023/09/28 04:44:13;;;;;;;11.55;7.85;;;;;;;15.14;100.00;101297.16;10473886;28;20037;-77
2023/09/28 04:49:14;;;;;;;9.40;7.45;;;;;;;15.16;100.00;101298.84;10483213;28;20066;-76
2023/09/28 04:54:14;;;;;;;12.43;7.85;;;;;;;15.14;100.00;101294.38;10475929;28;20044;-76
2023/09/28 04:59:15;;;;;;;9.77;7.97;;;;;;;14.65;100.00;101228.28;10462609;28;20048;-76
2023/09/28 05:04:16;;;;;;;11.98;7.68;;;;;;;15.01;100.00;101307.94;10463980;28;20044;-77
2023/09/28 05:09:16;;;;;;;13.70;9.07;;;;;;;14.95;100.00;101315.41;10472182;28;20040;-75
2023/09/28 05:14:17;;;;;;;10.55;7.97;;;;;;;14.95;100.00;101326.50;10458345;28;20037;-74
2023/09/28 05:19:18;;;;;;;12.38;8.10;;;;;;;14.97;100.00;101324.28;10478992;28;20056;-76
2023/09/28 05:24:18;;;;;;;12.45;7.82;;;;;;;14.98;100.00;101325.94;10477158;28;20040;-76
2023/09/28 05:29:19;;;;;;;12.73;8.02;;;;;;;14.99;100.00;101338.72;10475152;28;20123;-75
2023/09/28 05:34:19;;;;;;;8.73;6.25;;;;;;;15.00;100.00;101329.28;10474934;28;20060;-77
2023/09/28 05:39:21;;;;;;;12.68;8.38;;;;;;;14.92;100.00;101338.13;10476378;28;20040;-75
2023/09/28 05:44:22;;;;;;;10.10;7.97;;;;;;;14.93;100.00;101350.91;10476399;28;20041;-76
2023/09/28 05:49:22;;;;;;;14.23;7.43;;;;;;;14.90;100.00;101356.97;10480867;28;20047;-77
2023/09/28 05:54:23;;;;;;;11.55;7.80;;;;;;;14.86;100.00;101365.03;10483692;28;20045;-76
2023/09/28 05:59:23;;;;;;;11.45;7.93;;;;;;;14.87;100.00;101379.72;10489740;28;20071;-76
2023/09/28 06:04:25;;;;;;;13.77;7.45;;;;;;;14.86;100.00;101389.13;10472784;28;20049;-77
2023/09/28 06:09:26;;;;;;;12.80;7.65;;;;;;;14.86;100.00;101401.06;10486362;28;20048;-77
2023/09/28 06:14:27;;;;;;;18.58;8.70;;;;;;;14.73;100.00;101391.28;10480132;28;20567;-75
2023/09/28 06:19:28;;;;;;;14.27;7.60;;;;;;;15.02;100.00;101421.34;10453909;28;20103;-78
2023/09/28 06:24:28;;;;;;;12.38;7.45;;;;;;;15.14;100.00;101423.91;10462619;28;20468;-73
2023/09/28 06:29:32;;;;;;;11.73;7.15;;;;;;;15.23;100.00;101429.75;10487092;28;20059;-78
2023/09/28 06:34:32;;;;;;;12.05;7.45;;;;;;;15.28;100.00;101433.38;10477040;28;20051;-77
2023/09/28 06:39:32;;;;;;;11.38;6.05;;;;;;;15.41;100.00;101440.34;10479874;28;20063;-78
2023/09/28 06:44:36;;;;;;;9.68;6.43;;;;;;;15.46;100.00;101445.94;10485655;28;20037;-76
2023/09/28 06:49:36;;;;;;;9.93;7.50;;;;;;;15.52;100.00;101442.06;10480726;28;20075;-77
2023/09/28 06:54:38;;;;;;;11.00;7.38;;;;;;;15.68;100.00;101451.22;10483441;28;20519;-77
2023/09/28 06:59:38;;;;;;;14.25;7.55;;;;;;;15.82;100.00;101465.44;10480477;28;20052;-77
2023/09/28 07:04:38;;;;;;;16.77;6.72;;;;;;;15.93;100.00;101452.41;10469816;28;20040;-76
2023/09/28 07:09:39;;;;;;;11.00;6.25;;;;;;;16.21;100.00;101453.81;10466062;28;20041;-76
2023/09/28 07:14:40;;;;;;;8.93;5.50;;;;;;;16.37;100.00;101471.31;10481167;28;20033;-77
2023/09/28 07:19:42;;;;;;;13.32;4.97;;;;;;;16.46;100.00;101486.31;10484528;28;20096;-78
2023/09/28 07:24:43;;;;;;;22.17;9.27;;;;;;;16.58;100.00;101488.81;10470949;28;20105;-77
2023/09/28 07:29:43;;;;;;;16.30;4.72;;;;;;;16.85;100.00;101493.25;10452474;28;20060;-79
2023/09/28 07:34:44;;;;;;;12.20;3.92;;;;;;;17.09;100.00;101480.34;10463142;28;20037;-79
2023/09/28 07:39:44;;;;;;;13.40;4.60;;;;;;;17.15;100.00;101489.53;10475193;28;20041;-79
2023/09/28 07:44:47;;;;;;;12.20;3.63;;;;;;;17.21;100.00;101502.31;10473222;28;20037;-77
2023/09/28 07:49:47;;;;;;;14.40;5.15;;;;;;;17.32;100.00;101511.44;10452613;28;20072;-79
2023/09/28 07:54:48;;;;;;;15.48;4.00;;;;;;;17.45;100.00;101512.81;10442486;28;20044;-76
2023/09/28 07:59:48;;;;;;;12.90;3.17;;;;;;;17.46;100.00;101508.88;10453292;28;20056;-81
2023/09/28 08:04:49;;;;;;;11.52;2.60;;;;;;;17.29;100.00;101512.03;10455351;28;20041;-80
2023/09/28 08:09:49;;;;;;;16.17;2.92;;;;;;;17.32;100.00;101517.88;10454258;28;20041;-76
2023/09/28 08:14:50;;;;;;;17.27;4.10;;;;;;;17.33;100.00;101513.13;10445483;28;20051;-77
2023/09/28 08:19:51;;;;;;;21.02;3.78;;;;;;;17.41;100.00;101520.06;10449351;28;20056;-78
2023/09/28 08:24:51;;;;;;;15.73;2.25;;;;;;;17.54;100.00;101525.81;10449635;28;20135;-77
2023/09/28 08:29:52;;;;;;;12.57;3.38;;;;;;;17.57;100.00;101530.00;10445075;28;20052;-79
2023/09/28 08:34:52;;;;;;;18.85;3.22;;;;;;;17.56;100.00;101528.31;10446776;28;20064;-78
2023/09/28 08:39:57;;;;;;;16.73;2.53;;;;;;;17.64;100.00;101536.09;10467873;28;20048;-76
2023/09/28 08:45:01;;;;;;;17.08;3.03;;;;;;;17.80;100.00;101531.28;10468483;28;20056;-77
2023/09/28 08:50:03;;;;;;;11.00;2.92;;;;;;;18.05;100.00;101535.06;10472725;28;20116;-77
2023/09/28 08:55:04;;;;;;;15.00;2.70;;;;;;;18.34;100.00;101560.22;10480712;28;20040;-78
2023/09/28 09:00:09;;;;;;;26.83;4.28;;;;;;;18.62;100.00;101566.13;10474316;28;20047;-75
2023/09/28 09:05:12;;;;;;;17.20;2.58;;;;;;;18.78;100.00;101562.06;10481721;28;20064;-77
2023/09/28 09:10:14;;;;;;;13.13;3.22;;;;;;;18.99;100.00;101567.50;10476389;28;20051;-78
2023/09/28 09:15:14;;;;;;;10.52;3.10;;;;;;;18.63;100.00;101479.38;10471688;28;20037;-77
2023/09/28 09:20:15;;;;;;;20.50;5.63;;;;;;;19.30;100.00;101554.84;10479739;28;20593;-77
2023/09/28 09:25:15;;;;;;;21.15;3.40;;;;;;;19.15;100.00;101552.25;10475176;28;20029;-77
2023/09/28 09:30:17;;;;;;;19.50;2.80;;;;;;;19.41;100.00;101560.31;10476216;28;20550;-75
2023/09/28 09:35:20;;;;;;;19.02;3.05;;;;;;;19.51;100.00;101555.47;10473995;28;20052;-76
2023/09/28 09:40:21;;;;;;;21.40;4.05;;;;;;;19.01;100.00;101485.13;10464015;28;20037;-80
2023/09/28 09:45:21;;;;;;;17.38;3.90;;;;;;;19.55;100.00;101567.72;10475137;28;20051;-76
2023/09/28 09:50:22;;;;;;;21.83;3.83;;;;;;;19.74;100.00;101594.84;10459527;28;20045;-74
2023/09/28 09:55:22;;;;;;;12.27;2.88;;;;;;;19.51;100.00;101588.13;10457284;28;20037;-75
2023/09/28 10:00:23;;;;;;;21.67;4.43;;;;;;;19.37;100.00;101585.25;10479204;28;20094;-76
2023/09/28 10:05:24;;;;;;;13.63;3.50;;;;;;;19.20;100.00;101576.47;10466107;28;20045;-75
2023/09/28 10:10:27;;;;;;;9.88;2.15;;;;;;;19.42;100.00;101585.16;10479620;28;20052;-75
2023/09/28 10:15:27;;;;;;;17.88;3.63;;;;;;;19.30;100.00;101588.34;10470418;28;20481;-78
2023/09/28 10:20:28;;;;;;;13.52;3.63;;;;;;;19.26;100.00;101583.66;10477632;28;20032;-75
2023/09/28 10:25:28;;;;;;;17.20;2.85;;;;;;;19.44;100.00;101576.50;10471050;28;20116;-76
2023/09/28 10:30:29;;;;;;;12.30;3.38;;;;;;;19.64;100.00;101575.44;10460987;28;20113;-75
2023/09/28 10:35:30;;;;;;;14.15;3.85;;;;;;;20.01;100.00;101573.81;10450385;28;20068;-66
2023/09/28 10:40:33;;;;;;;17.02;3.42;;;;;;;20.36;100.00;101564.91;10487701;28;20067;-79
2023/09/28 10:45:36;;;;;;;19.58;4.05;;;;;;;20.19;100.00;101586.97;10482129;28;20491;-75
2023/09/28 10:50:37;;;;;;;13.48;3.22;;;;;;;20.18;100.00;101601.28;10478884;28;20532;-78
2023/09/28 10:55:41;;;;;;;13.50;3.25;;;;;;;19.87;100.00;101601.69;10453519;28;20075;-75
2023/09/28 11:00:42;;;;;;;12.13;2.20;;;;;;;19.68;100.00;101610.84;10433621;28;20036;-76
2023/09/28 11:05:42;;;;;;;25.15;4.38;;;;;;;19.66;100.00;101606.69;10471180;28;20111;-77
2023/09/28 11:10:44;;;;;;;16.55;2.83;;;;;;;19.64;100.00;101612.56;10470787;28;20036;-74
2023/09/28 11:15:44;;;;;;;12.68;2.33;;;;;;;19.59;100.00;101597.81;10478727;28;20056;-75
2023/09/28 11:20:44;;;;;;;16.77;3.22;;;;;;;19.60;100.00;101602.28;10483912;28;20044;-79
2023/09/28 11:25:45;;;;;;;18.02;3.22;;;;;;;19.69;100.00;101612.47;10480474;28;20428;-75
2023/09/28 11:30:46;;;;;;;15.90;2.67;;;;;;;19.81;100.00;101609.31;10483024;28;20037;-76
2023/09/28 11:35:46;;;;;;;12.18;3.22;;;;;;;20.17;100.00;101611.59;10469826;28;20036;-76
2023/09/28 11:40:48;;;;;;;13.57;2.80;;;;;;;20.46;100.00;101596.63;10456527;28;20037;-76
2023/09/28 11:45:51;;;;;;;14.95;4.00;;;;;;;20.50;100.00;101612.50;10451254;28;20061;-77
2023/09/28 11:50:52;;;;;;;15.60;2.92;;;;;;;20.31;100.00;101590.16;10447006;28;20049;-75
2023/09/28 11:55:53;;;;;;;12.38;2.60;;;;;;;20.28;100.00;101615.94;10454281;28;20091;-75
2023/09/28 12:00:53;;;;;;;16.55;3.00;;;;;;;20.32;100.00;101547.09;10451421;28;20120;-75
2023/09/28 12:05:54;;;;;;;14.13;2.83;;;;;;;20.96;100.00;101608.16;10455374;28;20397;-75
2023/09/28 12:10:57;;;;;;;11.07;3.08;;;;;;;20.87;100.00;101612.78;10455703;28;20041;-75
2023/09/28 12:15:57;;;;;;;7.40;2.20;;;;;;;21.30;100.00;101606.97;10449182;28;20053;-76
2023/09/28 12:20:59;;;;;;;19.35;4.63;;;;;;;22.19;100.00;101600.09;10448531;28;20100;-75
2023/09/28 12:26:01;;;;;;;9.55;2.60;;;;;;;21.96;100.00;101597.22;10448710;28;20032;-76
2023/09/28 12:31:03;;;;;;;14.27;3.53;;;;;;;21.45;100.00;101603.91;10455817;28;20036;-77
2023/09/28 12:36:05;;;;;;;12.02;2.22;;;;;;;21.40;100.00;101603.97;10451587;28;20045;-77
2023/09/28 12:41:09;;;;;;;15.43;2.40;;;;;;;21.81;100.00;101596.72;10433121;28;20119;-77
2023/09/28 12:46:09;;;;;;;14.70;3.17;;;;;;;21.64;100.00;101608.56;10444533;28;20037;-76
2023/09/28 12:51:11;;;;;;;14.25;2.95;;;;;;;20.84;100.00;101619.84;10447583;28;20065;-74
2023/09/28 12:56:12;;;;;;;11.70;2.58;;;;;;;20.46;100.00;101607.81;10452693;28;20409;-76
2023/09/28 13:01:13;;;;;;;14.50;2.78;;;;;;;20.64;100.00;101631.38;10442352;28;20044;-75
2023/09/28 13:06:13;;;;;;;15.75;2.88;;;;;;;21.11;100.00;101627.47;10443329;28;20072;-76
2023/09/28 13:11:14;;;;;;;14.00;2.80;;;;;;;21.06;100.00;101616.34;10452311;28;20045;-74
2023/09/28 13:16:19;;;;;;;12.82;2.40;;;;;;;21.16;100.00;101624.56;10450574;28;20061;-73
2023/09/28 13:21:22;;;;;;;14.13;2.40;;;;;;;21.49;100.00;101613.34;10442818;28;20064;-74
2023/09/28 13:26:24;;;;;;;12.70;3.53;;;;;;;21.49;100.00;101606.91;10448125;28;20041;-75
2023/09/28 13:31:25;;;;;;;14.05;2.55;;;;;;;21.16;100.00;101621.78;10459292;28;20052;-75
2023/09/28 13:36:25;;;;;;;16.05;2.20;;;;;;;21.41;100.00;101611.22;10473564;28;20037;-74
2023/09/28 13:41:26;;;;;;;18.33;4.30;;;;;;;21.52;100.00;101618.34;10478698;28;20051;-75
2023/09/28 13:46:27;;;;;;;16.92;4.25;;;;;;;21.45;100.00;101615.09;10475857;28;20049;-75
2023/09/28 13:51:27;;;;;;;16.75;3.80;;;;;;;21.16;100.00;101624.56;10469280;28;20056;-74
2023/09/28 13:56:31;;;;;;;13.40;2.72;;;;;;;21.06;100.00;101626.72;10470549;28;20037;-72
2023/09/28 14:01:31;;;;;;;15.82;3.17;;;;;;;21.02;100.00;101626.50;10463249;28;20033;-75
2023/09/28 14:06:33;;;;;;;12.65;2.47;;;;;;;20.49;100.00;101621.22;10479064;28;20476;-73
2023/09/28 14:11:34;;;;;;;9.57;1.85;;;;;;;20.07;100.00;101618.19;10482269;28;20080;-73
2023/09/28 14:16:35;;;;;;;13.07;2.13;;;;;;;20.03;100.00;101624.66;10477964;28;20067;-74
2023/09/28 14:21:36;;;;;;;12.10;2.88;;;;;;;19.95;100.00;101626.19;10486254;28;20040;-75
2023/09/28 14:26:36;;;;;;;15.57;3.20;;;;;;;19.78;100.00;101631.41;10479029;28;20041;-75
2023/09/28 14:31:37;;;;;;;14.73;3.65;;;;;;;19.60;100.00;101631.03;10480697;28;20057;-73
2023/09/28 14:36:37;;;;;;;18.50;3.95;;;;;;;19.66;100.00;101631.81;10487856;28;20583;-73
2023/09/28 14:41:38;;;;;;;15.60;2.58;;;;;;;19.72;100.00;101633.44;10480884;28;20457;-74
2023/09/28 14:46:38;;;;;;;12.18;2.90;;;;;;;19.88;100.00;101637.69;10483985;28;20044;-74
2023/09/28 14:51:39;;;;;;;14.48;2.53;;;;;;;20.13;100.00;101617.00;10482246;28;20330;-66
2023/09/28 14:56:40;;;;;;;17.65;3.67;;;;;;;20.16;100.00;101616.38;10483947;28;20048;-75
2023/09/28 15:01:40;;;;;;;16.63;2.90;;;;;;;19.91;100.00;101620.34;10478071;28;20048;-73
2023/09/28 15:06:41;;;;;;;28.20;3.30;;;;;;;19.65;100.00;101610.59;10478556;28;20048;-75
2023/09/28 15:11:41;;;;;;;17.85;3.40;;;;;;;19.41;100.00;101599.41;10481544;28;20037;-74
2023/09/28 15:16:42;;;;;;;18.30;3.00;;;;;;;19.27;100.00;101616.88;10480818;28;20037;-74
2023/09/28 15:21:42;;;;;;;15.07;2.70;;;;;;;19.13;100.00;101605.56;10479505;28;20048;-74
2023/09/28 15:26:43;;;;;;;18.10;4.53;;;;;;;19.09;100.00;101612.88;10472140;28;20037;-72
2023/09/28 15:31:43;;;;;;;14.75;4.50;;;;;;;19.09;100.00;101610.06;10471486;28;20071;-74
2023/09/28 15:36:45;;;;;;;16.75;4.13;;;;;;;19.07;100.00;101617.91;10484132;28;20052;-74
2023/09/28 15:41:46;;;;;;;18.60;3.80;;;;;;;18.98;100.00;101604.91;10468822;28;20388;-74
2023/09/28 15:46:47;;;;;;;18.25;3.78;;;;;;;18.98;100.00;101605.72;10483781;28;20075;-74
2023/09/28 15:51:47;;;;;;;15.85;3.88;;;;;;;18.89;100.00;101604.69;10476947;28;20049;-75
2023/09/28 15:56:47;;;;;;;17.33;3.75;;;;;;;18.89;100.00;101610.25;10482761;28;20045;-74
2023/09/28 16:01:50;;;;;;;17.73;2.90;;;;;;;18.89;100.00;101602.75;10471822;28;20176;-74
2023/09/28 16:06:51;;;;;;;11.43;2.58;;;;;;;18.84;100.00;101604.75;10465731;28;20041;-74
2023/09/28 16:11:51;;;;;;;12.10;2.90;;;;;;;18.83;100.00;101617.00;10475926;28;20182;-74
2023/09/28 16:16:52;;;;;;;16.70;3.83;;;;;;;18.76;100.00;101612.56;10479933;28;20048;-74
2023/09/28 16:21:54;;;;;;;20.42;4.65;;;;;;;18.70;100.00;101598.97;10462880;28;20039;-74
2023/09/28 16:26:54;;;;;;;15.52;3.65;;;;;;;18.55;100.00;101611.91;10479387;28;20068;-74
2023/09/28 16:31:55;;;;;;;16.90;4.68;;;;;;;18.17;100.00;101585.69;10466526;28;20045;-74
2023/09/28 16:36:55;;;;;;;17.38;3.63;;;;;;;18.32;100.00;101634.94;10481155;28;20028;-74
2023/09/28 16:41:56;;;;;;;12.77;3.97;;;;;;;18.21;100.00;101631.38;10476590;28;20079;-74
2023/09/28 16:46:56;;;;;;;13.68;2.58;;;;;;;18.07;100.00;101627.56;10466440;28;20080;-75
2023/09/28 16:51:57;;;;;;;15.48;3.60;;;;;;;17.93;100.00;101633.72;10466145;28;20385;-75
2023/09/28 16:56:58;;;;;;;14.60;4.03;;;;;;;17.79;100.00;101638.22;10481241;28;20037;-74
2023/09/28 17:01:59;;;;;;;18.30;3.83;;;;;;;17.69;100.00;101629.91;10475187;28;20073;-74
2023/09/28 17:06:59;;;;;;;14.55;3.85;;;;;;;17.50;100.00;101630.50;10474056;28;20396;-75
2023/09/28 17:12:00;;;;;;;19.45;3.97;;;;;;;17.30;100.00;101613.84;10468053;28;20098;-75
2023/09/28 17:17:00;;;;;;;13.05;3.38;;;;;;;17.11;100.00;101606.09;10475505;28;20037;-75
2023/09/28 17:22:00;;;;;;;17.58;3.53;;;;;;;16.96;100.00;101608.91;10477760;28;20546;-74
2023/09/28 17:27:01;;;;;;;17.02;4.47;;;;;;;16.87;100.00;101593.91;10475668;28;20485;-74
2023/09/28 17:32:03;;;;;;;13.10;3.33;;;;;;;16.81;100.00;101600.59;10474227;28;20044;-72
2023/09/28 17:37:04;;;;;;;14.38;3.97;;;;;;;16.72;100.00;101609.47;10478835;28;20048;-68
2023/09/28 17:42:04;;;;;;;20.30;4.28;;;;;;;16.61;100.00;101612.50;10475037;28;20128;-66
2023/09/28 17:47:07;;;;;;;17.38;4.05;;;;;;;16.55;100.00;101617.22;10478530;28;20037;-74
2023/09/28 17:52:07;;;;;;;17.08;3.90;;;;;;;16.48;100.00;101611.09;10475136;28;20406;-74
2023/09/28 17:57:08;;;;;;;18.85;4.70;;;;;;;16.42;100.00;101612.22;10479174;28;20029;-73
2023/09/28 18:02:11;;;;;;;20.63;3.83;;;;;;;16.36;100.00;101608.59;10463424;28;20041;-74
2023/09/28 18:07:11;;;;;;;17.13;4.15;;;;;;;16.26;100.00;101600.22;10478625;28;20048;-74
2023/09/28 18:12:12;;;;;;;17.98;4.20;;;;;;;16.03;100.00;101596.84;10478910;28;20060;-73
2023/09/28 18:17:12;;;;;;;12.38;4.60;;;;;;;15.98;100.00;101612.66;10477901;28;20103;-73
2023/09/28 18:22:13;;;;;;;21.27;5.10;;;;;;;15.81;100.00;101619.25;10477446;28;20075;-73
2023/09/28 18:27:13;;;;;;;15.88;3.75;;;;;;;15.69;100.00;101624.19;10479379;28;20101;-73
2023/09/28 18:32:14;;;;;;;15.77;4.97;;;;;;;15.58;100.00;101641.88;10477006;28;20052;-74
2023/09/28 18:37:15;;;;;;;14.60;4.53;;;;;;;15.48;100.00;101646.28;10481372;28;20044;-74
2023/09/28 18:42:15;;;;;;;14.07;4.75;;;;;;;15.44;100.00;101633.19;10475884;28;20067;-75
2023/09/28 18:47:16;;;;;;;13.18;4.65;;;;;;;15.40;100.00;101638.47;10477561;28;20059;-73
2023/09/28 18:52:16;;;;;;;20.35;5.10;;;;;;;15.39;100.00;101641.50;10476414;28;20049;-74
2023/09/28 18:57:18;;;;;;;18.08;5.13;;;;;;;15.35;100.00;101641.19;10481805;28;20037;-74
2023/09/28 19:02:18;;;;;;;15.25;4.82;;;;;;;15.26;100.00;101637.25;10486325;28;20462;-73
2023/09/28 19:07:20;;;;;;;21.17;5.25;;;;;;;15.20;100.00;101638.34;10482562;28;20049;-73
2023/09/28 19:12:21;;;;;;;19.25;4.47;;;;;;;15.05;100.00;101631.56;10481905;28;20484;-74
2023/09/28 19:17:21;;;;;;;19.60;4.93;;;;;;;14.91;100.00;101613.72;10479047;28;20044;-73
2023/09/28 19:22:22;;;;;;;19.35;6.07;;;;;;;14.79;100.00;101621.38;10479977;28;20049;-73
2023/09/28 19:27:25;;;;;;;17.27;5.35;;;;;;;14.68;100.00;101626.00;10476246;28;20972;-74
2023/09/28 19:32:25;;;;;;;16.60;5.55;;;;;;;14.54;100.00;101631.09;10482859;28;20044;-73
2023/09/28 19:37:26;;;;;;;16.75;5.18;;;;;;;14.51;100.00;101648.22;10482293;28;20048;-74
2023/09/28 19:42:26;;;;;;;20.23;4.85;;;;;;;14.38;100.00;101632.03;10477183;28;20041;-73
2023/09/28 19:47:27;;;;;;;23.48;6.07;;;;;;;14.19;100.00;101604.72;10484209;28;20040;-74
2023/09/28 19:52:27;;;;;;;18.25;4.85;;;;;;;14.23;100.00;101630.78;10479018;28;20037;-72
2023/09/28 19:57:28;;;;;;;23.75;5.80;;;;;;;14.20;100.00;101620.25;10482692;28;20032;-74
2023/09/28 20:02:28;;;;;;;17.02;5.38;;;;;;;14.14;100.00;101612.97;10480921;28;20033;-70
2023/09/28 20:07:29;;;;;;;18.42;6.97;;;;;;;14.13;100.00;101611.28;10485708;28;20578;-72
2023/09/28 20:12:29;;;;;;;21.15;5.97;;;;;;;14.15;100.00;101609.09;10483050;28;20040;-73
2023/09/28 20:17:30;;;;;;;21.20;6.40;;;;;;;14.15;100.00;101602.72;10483600;28;20045;-74
2023/09/28 20:22:31;;;;;;;30.20;9.02;;;;;;;14.11;100.00;101605.16;10482691;28;20315;-73
2023/09/28 20:27:32;;;;;;;17.05;6.97;;;;;;;14.03;100.00;101598.16;10481102;28;20071;-72
2023/09/28 20:32:33;;;;;;;26.95;6.85;;;;;;;13.97;100.00;101604.72;10478824;28;20040;-72
2023/09/28 20:37:33;;;;;;;23.45;8.93;;;;;;;13.93;100.00;101586.97;10464691;28;20091;-73
2023/09/28 20:42:34;;;;;;;21.92;7.18;;;;;;;13.87;100.00;101588.88;10469232;28;20037;-73
2023/09/28 20:47:35;;;;;;;20.88;6.65;;;;;;;13.79;100.00;101567.19;10486458;28;20047;-73
2023/09/28 20:52:36;;;;;;;19.27;6.85;;;;;;;13.58;100.00;101540.34;10477794;28;20040;-72
2023/09/28 20:57:36;;;;;;;21.92;8.23;;;;;;;13.80;100.00;101568.84;10482253;28;20056;-73
2023/09/28 21:02:37;;;;;;;25.63;9.93;;;;;;;13.80;100.00;101565.25;10478962;28;20036;-73
2023/09/28 21:07:38;;;;;;;22.98;8.63;;;;;;;13.77;100.00;101574.91;10480579;28;20040;-73
2023/09/28 21:12:38;;;;;;;24.67;8.88;;;;;;;13.66;100.00;101553.72;10476040;28;20048;-73
2023/09/28 21:17:39;;;;;;;19.05;7.43;;;;;;;13.75;100.00;101574.31;10478093;28;20106;-73
2023/09/28 21:22:40;;;;;;;22.42;8.20;;;;;;;13.81;100.00;101567.75;10478720;28;20051;-73
2023/09/28 21:27:40;;;;;;;21.73;7.55;;;;;;;13.78;100.00;101557.19;10478749;28;20033;-73
2023/09/28 21:32:40;;;;;;;20.35;8.23;;;;;;;13.84;100.00;101561.69;10471081;28;20040;-74
2023/09/28 21:37:41;;;;;;;21.13;7.97;;;;;;;13.87;100.00;101550.13;10470837;28;20045;-73
2023/09/28 21:42:42;;;;;;;20.60;9.18;;;;;;;13.95;100.00;101553.50;10452584;28;20040;-73
2023/09/28 21:47:42;;;;;;;22.70;8.13;;;;;;;13.95;100.00;101557.09;10464101;28;20075;-74
2023/09/28 21:52:44;;;;;;;25.27;10.00;;;;;;;13.98;100.00;101561.31;10476948;28;20036;-73
2023/09/28 21:57:45;;;;;;;26.08;9.50;;;;;;;14.01;100.00;101556.06;10451789;28;20041;-72
2023/09/28 22:02:45;;;;;;;28.75;8.57;;;;;;;14.04;100.00;101561.09;10478604;28;20041;-73
2023/09/28 22:07:45;;;;;;;26.98;9.95;;;;;;;14.10;100.00;101553.69;10481120;28;20045;-71
2023/09/28 22:12:46;;;;;;;21.38;8.57;;;;;;;14.13;100.00;101553.13;10475403;28;20048;-73
2023/09/28 22:17:48;;;;;;;25.55;8.93;;;;;;;14.18;100.00;101553.22;10461021;28;20067;-73
2023/09/28 22:22:49;;;;;;;17.05;8.57;;;;;;;14.25;100.00;101544.69;10465248;28;20476;-73
2023/09/28 22:27:49;;;;;;;21.85;7.55;;;;;;;14.28;100.00;101539.44;10468410;28;20124;-73
2023/09/28 22:32:50;;;;;;;23.40;7.93;;;;;;;14.29;100.00;101540.28;10479517;28;20040;-73